UAL1584 KEGE-KDEN
Flight info
| Callsign | UAL1584 |
|---|---|
| Flight time | 0h 29m |
| Altitude | 21000 |
| Route | BELGN LONGZ LONGZ4 |
| Aircraft | B738/M-SDE2E3FGHIRWXY/LB1 |
Departure
| Time | 2026-05-08 08:09 |
|---|---|
| Airport | Eagle County Regional Airport (KEGE) |
Arrival
| Time | 2026-05-08 08:38 |
|---|---|
| Airport | Denver International Airport (KDEN) |
| Time | Latitude | Longitude | Altitude | Speed | Heading |
|---|---|---|---|---|---|
| 2026-05-08 07:50 | 39.64074 | -106.91418 | 6516 ft | 0 kts | 127° |
| 2026-05-08 08:03 | 39.64080 | -106.91429 | 6523 ft | 4 kts | 150° |
| 2026-05-08 08:03 | 39.64089 | -106.91429 | 6514 ft | 4 kts | 239° |
| 2026-05-08 08:04 | 39.64102 | -106.91401 | 6517 ft | 2 kts | 234° |
| 2026-05-08 08:04 | 39.64105 | -106.91396 | 6518 ft | 1 kts | 234° |
| 2026-05-08 08:06 | 39.64104 | -106.91408 | 6517 ft | 4 kts | 272° |
| 2026-05-08 08:06 | 39.64116 | -106.91475 | 6513 ft | 11 kts | 277° |
| 2026-05-08 08:06 | 39.64146 | -106.91579 | 6510 ft | 14 kts | 310° |
| 2026-05-08 08:06 | 39.64151 | -106.91727 | 6506 ft | 20 kts | 259° |
| 2026-05-08 08:07 | 39.64129 | -106.91932 | 6500 ft | 26 kts | 262° |
| 2026-05-08 08:07 | 39.64103 | -106.92167 | 6494 ft | 27 kts | 264° |
| 2026-05-08 08:07 | 39.64076 | -106.92409 | 6488 ft | 23 kts | 261° |
| 2026-05-08 08:07 | 39.64053 | -106.92621 | 6477 ft | 24 kts | 262° |
| 2026-05-08 08:08 | 39.64030 | -106.92837 | 6472 ft | 26 kts | 262° |
| 2026-05-08 08:08 | 39.64005 | -106.93062 | 6462 ft | 25 kts | 262° |
| 2026-05-08 08:08 | 39.64107 | -106.93114 | 6467 ft | 23 kts | 68° |
| 2026-05-08 08:08 | 39.64149 | -106.92745 | 6473 ft | 73 kts | 82° |
| 2026-05-08 08:09 | 39.64254 | -106.91808 | 6504 ft | 134 kts | 82° |
| 2026-05-08 08:09 | 39.64422 | -106.90393 | 6601 ft | 178 kts | 83° |
| 2026-05-08 08:09 | 39.64640 | -106.88720 | 7169 ft | 199 kts | 82° |
| 2026-05-08 08:09 | 39.64867 | -106.86873 | 7537 ft | 214 kts | 81° |
| 2026-05-08 08:10 | 39.65127 | -106.84944 | 8120 ft | 220 kts | 78° |
| 2026-05-08 08:10 | 39.65437 | -106.82897 | 8378 ft | 244 kts | 78° |
| 2026-05-08 08:10 | 39.65782 | -106.80658 | 8698 ft | 261 kts | 78° |
| 2026-05-08 08:10 | 39.66142 | -106.78322 | 9167 ft | 268 kts | 78° |
| 2026-05-08 08:11 | 39.66515 | -106.75906 | 9668 ft | 277 kts | 78° |
| 2026-05-08 08:11 | 39.66916 | -106.73392 | 10006 ft | 295 kts | 74° |
| 2026-05-08 08:11 | 39.67858 | -106.70930 | 10166 ft | 319 kts | 50° |
| 2026-05-08 08:11 | 39.69542 | -106.68912 | 10444 ft | 340 kts | 32° |
| 2026-05-08 08:12 | 39.70878 | -106.67792 | 10778 ft | 348 kts | 30° |
| 2026-05-08 08:12 | 39.73649 | -106.65604 | 11829 ft | 354 kts | 28° |
| 2026-05-08 08:12 | 39.75080 | -106.64486 | 12407 ft | 356 kts | 28° |
| 2026-05-08 08:12 | 39.77896 | -106.62271 | 13552 ft | 359 kts | 27° |
| 2026-05-08 08:13 | 39.80044 | -106.60568 | 14305 ft | 363 kts | 27° |
| 2026-05-08 08:13 | 39.82217 | -106.58836 | 14979 ft | 369 kts | 27° |
| 2026-05-08 08:13 | 39.83674 | -106.57667 | 15480 ft | 372 kts | 27° |
| 2026-05-08 08:13 | 39.85916 | -106.55860 | 16236 ft | 376 kts | 27° |
| 2026-05-08 08:14 | 39.88126 | -106.54077 | 16934 ft | 382 kts | 27° |
| 2026-05-08 08:14 | 39.90393 | -106.52246 | 17672 ft | 386 kts | 27° |
| 2026-05-08 08:14 | 39.92688 | -106.50389 | 18375 ft | 390 kts | 26° |
| 2026-05-08 08:14 | 39.95006 | -106.48511 | 19043 ft | 392 kts | 26° |
| 2026-05-08 08:15 | 39.97315 | -106.46637 | 19884 ft | 390 kts | 26° |
| 2026-05-08 08:15 | 39.99616 | -106.44757 | 20550 ft | 393 kts | 28° |
| 2026-05-08 08:15 | 40.01661 | -106.42329 | 20995 ft | 410 kts | 44° |
| 2026-05-08 08:15 | 40.03440 | -106.39432 | 21010 ft | 409 kts | 46° |
| 2026-05-08 08:16 | 40.05189 | -106.36478 | 21040 ft | 411 kts | 46° |
| 2026-05-08 08:16 | 40.06948 | -106.33531 | 21047 ft | 412 kts | 45° |
| 2026-05-08 08:16 | 40.08732 | -106.30600 | 21034 ft | 412 kts | 45° |
| 2026-05-08 08:16 | 40.10532 | -106.27685 | 21041 ft | 412 kts | 45° |
| 2026-05-08 08:17 | 40.12316 | -106.24802 | 21044 ft | 413 kts | 45° |
| 2026-05-08 08:17 | 40.13979 | -106.21696 | 21019 ft | 420 kts | 54° |
| 2026-05-08 08:17 | 40.15363 | -106.18323 | 21056 ft | 421 kts | 56° |
| 2026-05-08 08:17 | 40.16743 | -106.14934 | 21034 ft | 421 kts | 56° |
| 2026-05-08 08:18 | 40.18127 | -106.11567 | 21043 ft | 421 kts | 56° |
| 2026-05-08 08:18 | 40.19525 | -106.08193 | 21024 ft | 420 kts | 56° |
| 2026-05-08 08:18 | 40.20913 | -106.04840 | 21026 ft | 419 kts | 55° |
| 2026-05-08 08:18 | 40.22317 | -106.01500 | 21037 ft | 418 kts | 55° |
| 2026-05-08 08:19 | 40.23714 | -105.98162 | 21058 ft | 417 kts | 56° |
| 2026-05-08 08:19 | 40.25087 | -105.94872 | 21043 ft | 417 kts | 56° |
| 2026-05-08 08:19 | 40.26477 | -105.91539 | 21162 ft | 417 kts | 56° |
| 2026-05-08 08:19 | 40.27828 | -105.88226 | 21148 ft | 416 kts | 56° |
| 2026-05-08 08:20 | 40.29208 | -105.84894 | 21129 ft | 415 kts | 56° |
| 2026-05-08 08:20 | 40.30599 | -105.81579 | 21124 ft | 416 kts | 56° |
| 2026-05-08 08:20 | 40.31993 | -105.78252 | 20993 ft | 413 kts | 56° |
| 2026-05-08 08:20 | 40.33353 | -105.74976 | 20658 ft | 405 kts | 56° |
| 2026-05-08 08:21 | 40.34677 | -105.71770 | 20426 ft | 396 kts | 56° |
| 2026-05-08 08:21 | 40.35988 | -105.68621 | 20165 ft | 391 kts | 56° |
| 2026-05-08 08:21 | 40.37261 | -105.65543 | 19898 ft | 387 kts | 57° |
| 2026-05-08 08:21 | 40.38159 | -105.62150 | 19602 ft | 394 kts | 79° |
| 2026-05-08 08:22 | 40.38122 | -105.58623 | 19384 ft | 392 kts | 97° |
| 2026-05-08 08:22 | 40.37582 | -105.55142 | 19164 ft | 387 kts | 101° |
| 2026-05-08 08:22 | 40.36986 | -105.51711 | 18932 ft | 385 kts | 101° |
| 2026-05-08 08:22 | 40.36400 | -105.48287 | 18694 ft | 385 kts | 100° |
| 2026-05-08 08:23 | 40.35838 | -105.44865 | 18482 ft | 384 kts | 100° |
| 2026-05-08 08:23 | 40.35291 | -105.41453 | 18247 ft | 381 kts | 99° |
| 2026-05-08 08:23 | 40.34740 | -105.38090 | 17973 ft | 374 kts | 103° |
| 2026-05-08 08:23 | 40.33667 | -105.35017 | 17677 ft | 370 kts | 126° |
| 2026-05-08 08:24 | 40.32116 | -105.32360 | 17445 ft | 363 kts | 128° |
| 2026-05-08 08:24 | 40.30556 | -105.29786 | 17192 ft | 358 kts | 128° |
| 2026-05-08 08:24 | 40.29019 | -105.27250 | 16957 ft | 354 kts | 128° |
| 2026-05-08 08:24 | 40.27518 | -105.24764 | 16718 ft | 351 kts | 128° |
| 2026-05-08 08:25 | 40.26016 | -105.22253 | 16472 ft | 349 kts | 128° |
| 2026-05-08 08:25 | 40.24528 | -105.19749 | 16225 ft | 347 kts | 128° |
| 2026-05-08 08:25 | 40.23051 | -105.17260 | 15978 ft | 346 kts | 128° |
| 2026-05-08 08:25 | 40.21589 | -105.14769 | 15687 ft | 344 kts | 127° |
| 2026-05-08 08:26 | 40.20125 | -105.12303 | 15472 ft | 343 kts | 128° |
| 2026-05-08 08:26 | 40.18655 | -105.09846 | 15231 ft | 343 kts | 128° |
| 2026-05-08 08:26 | 40.17184 | -105.07385 | 15049 ft | 342 kts | 128° |
| 2026-05-08 08:26 | 40.15711 | -105.04911 | 14808 ft | 346 kts | 128° |
| 2026-05-08 08:27 | 40.14223 | -105.02434 | 14556 ft | 347 kts | 130° |
| 2026-05-08 08:27 | 40.12570 | -105.00131 | 14307 ft | 347 kts | 136° |
| 2026-05-08 08:27 | 40.10871 | -104.98002 | 13963 ft | 347 kts | 137° |
| 2026-05-08 08:27 | 40.09141 | -104.95862 | 13731 ft | 347 kts | 137° |
| 2026-05-08 08:28 | 40.07406 | -104.93682 | 13504 ft | 344 kts | 136° |
| 2026-05-08 08:28 | 40.05705 | -104.91510 | 13258 ft | 339 kts | 136° |
| 2026-05-08 08:28 | 40.04032 | -104.89361 | 13017 ft | 335 kts | 136° |
| 2026-05-08 08:28 | 40.02376 | -104.87231 | 12954 ft | 334 kts | 136° |
| 2026-05-08 08:29 | 40.00721 | -104.85102 | 12949 ft | 333 kts | 136° |
| 2026-05-08 08:29 | 39.99072 | -104.82984 | 12953 ft | 332 kts | 136° |
| 2026-05-08 08:29 | 39.97278 | -104.81194 | 12948 ft | 329 kts | 158° |
| 2026-05-08 08:29 | 39.95104 | -104.80426 | 12973 ft | 320 kts | 180° |
| 2026-05-08 08:30 | 39.92909 | -104.80413 | 12954 ft | 310 kts | 186° |
| 2026-05-08 08:30 | 39.90786 | -104.80497 | 12897 ft | 299 kts | 186° |
| 2026-05-08 08:30 | 39.86810 | -104.80660 | 12479 ft | 278 kts | 186° |
| 2026-05-08 08:31 | 39.84878 | -104.80726 | 12012 ft | 277 kts | 186° |
| 2026-05-08 08:31 | 39.82955 | -104.80782 | 11585 ft | 275 kts | 185° |
| 2026-05-08 08:31 | 39.81049 | -104.80834 | 11182 ft | 272 kts | 185° |
| 2026-05-08 08:31 | 39.79167 | -104.80884 | 10783 ft | 269 kts | 185° |
| 2026-05-08 08:32 | 39.77310 | -104.80988 | 10393 ft | 265 kts | 188° |
| 2026-05-08 08:32 | 39.75474 | -104.81167 | 9995 ft | 263 kts | 188° |
| 2026-05-08 08:32 | 39.73675 | -104.81360 | 9733 ft | 253 kts | 189° |
| 2026-05-08 08:32 | 39.71943 | -104.81523 | 9418 ft | 249 kts | 183° |
| 2026-05-08 08:33 | 39.70243 | -104.81070 | 9041 ft | 251 kts | 157° |
| 2026-05-08 08:33 | 39.68866 | -104.79778 | 8858 ft | 244 kts | 133° |
| 2026-05-08 08:33 | 39.68019 | -104.77904 | 8515 ft | 241 kts | 107° |
| 2026-05-08 08:33 | 39.67841 | -104.75810 | 8117 ft | 236 kts | 82° |
| 2026-05-08 08:34 | 39.68263 | -104.73774 | 7703 ft | 233 kts | 69° |
| 2026-05-08 08:34 | 39.68818 | -104.71835 | 7535 ft | 222 kts | 67° |
| 2026-05-08 08:34 | 39.69597 | -104.70177 | 7589 ft | 215 kts | 47° |
| 2026-05-08 08:34 | 39.70594 | -104.68684 | 7599 ft | 221 kts | 47° |
| 2026-05-08 08:35 | 39.71599 | -104.67177 | 7596 ft | 220 kts | 44° |
| 2026-05-08 08:35 | 39.72892 | -104.66200 | 7382 ft | 214 kts | 7° |
| 2026-05-08 08:35 | 39.74312 | -104.66162 | 7192 ft | 194 kts | 358° |
| 2026-05-08 08:35 | 39.75614 | -104.66139 | 6917 ft | 179 kts | 360° |
| 2026-05-08 08:36 | 39.76811 | -104.66119 | 6729 ft | 169 kts | 359° |
| 2026-05-08 08:36 | 39.78005 | -104.66115 | 6478 ft | 171 kts | 359° |
| 2026-05-08 08:36 | 39.79182 | -104.66131 | 6176 ft | 167 kts | 359° |
| 2026-05-08 08:36 | 39.80307 | -104.66101 | 5888 ft | 161 kts | 0° |
| 2026-05-08 08:37 | 39.81413 | -104.66078 | 5630 ft | 153 kts | 0° |
| 2026-05-08 08:37 | 39.82435 | -104.66060 | 5404 ft | 141 kts | 359° |
| 2026-05-08 08:37 | 39.83375 | -104.66044 | 5363 ft | 124 kts | 1° |
| 2026-05-08 08:37 | 39.84118 | -104.66046 | 5363 ft | 89 kts | 360° |
| 2026-05-08 08:38 | 39.84627 | -104.66037 | 5363 ft | 64 kts | 0° |
| 2026-05-08 08:38 | 39.85043 | -104.66037 | 5361 ft | 54 kts | 358° |
| 2026-05-08 08:38 | 39.85285 | -104.66153 | 5364 ft | 31 kts | 331° |
| 2026-05-08 08:38 | 39.85443 | -104.66233 | 5364 ft | 24 kts | 355° |
| 2026-05-08 08:39 | 39.85568 | -104.66273 | 5364 ft | 16 kts | 306° |
| 2026-05-08 08:39 | 39.85584 | -104.66416 | 5365 ft | 17 kts | 271° |
| 2026-05-08 08:39 | 39.85656 | -104.66506 | 5364 ft | 15 kts | 346° |
| 2026-05-08 08:39 | 39.85665 | -104.66590 | 5365 ft | 11 kts | 265° |
| 2026-05-08 08:40 | 39.85662 | -104.66712 | 5363 ft | 16 kts | 273° |
| 2026-05-08 08:40 | 39.85703 | -104.66819 | 5362 ft | 14 kts | 333° |
| 2026-05-08 08:40 | 39.85727 | -104.66940 | 5365 ft | 16 kts | 274° |
| 2026-05-08 08:40 | 39.85754 | -104.67032 | 5364 ft | 10 kts | 348° |
| 2026-05-08 08:41 | 39.85798 | -104.67031 | 5364 ft | 4 kts | 0° |
| 2026-05-08 08:41 | 39.85799 | -104.67031 | 5364 ft | 0 kts | 0° |